Burkett, Texas
Current Conditions -  °F | °C
As of 3:35 AM on Saturday 20 Dec 2014 (Local Time) from KCOM Reporting Station
Overcast Overcast  
Wind Chill: 46°   Ceiling: 2200
Heat Index: 46°   Visibility: 10mi
Dew Point: 44°   Wind: 3mph
Humidity: 93%   Direction: 100°E
Pressure: 30.19"   Gusts: NA
Location:  32°N, 99.23°W
Report Text: KCOM 200935Z AUTO 10003KT 10SM OVC022 08/07 A3019 RMK AO2 T00750065
Loading
Personal Weather Stations






























Interactive Weather Map New forecast layout! Learn more

10-Day Weather Forecast

Advertisements
Track Severe Weather on mobile